createdAt,value
2023-05-15T00:00:01.764Z,8.26
2023-05-15T00:01:03.857Z,8.24
2023-05-15T00:02:01.683Z,8.24
2023-05-15T00:03:02.330Z,8.24
2023-05-15T00:04:01.594Z,8.24
2023-05-15T00:05:02.154Z,8.23
2023-05-15T00:06:01.595Z,8.24
2023-05-15T00:07:03.778Z,8.24
2023-05-15T00:08:01.510Z,8.26
2023-05-15T00:09:02.007Z,8.26
2023-05-15T00:10:01.517Z,8.26
2023-05-15T00:11:02.355Z,8.23
2023-05-15T00:12:01.434Z,8.23
2023-05-15T00:13:01.942Z,8.23
2023-05-15T00:14:03.039Z,8.26
2023-05-15T00:15:01.830Z,8.26
2023-05-15T00:16:01.411Z,8.28
2023-05-15T00:17:01.851Z,8.29
2023-05-15T00:18:02.438Z,8.27
2023-05-15T00:19:01.813Z,8.29
2023-05-15T00:20:02.234Z,8.29
2023-05-15T00:21:01.771Z,8.29
2023-05-15T00:22:02.244Z,8.31
2023-05-15T00:23:01.677Z,8.31
2023-05-15T00:24:02.189Z,8.33
2023-05-15T00:25:01.604Z,8.34
2023-05-15T00:26:02.070Z,8.35
2023-05-15T00:27:01.598Z,8.39
2023-05-15T00:28:02.068Z,8.39
2023-05-15T00:29:03.196Z,8.41
2023-05-15T00:30:02.012Z,8.42
2023-05-15T00:31:01.525Z,8.43
2023-05-15T00:32:01.923Z,8.44
2023-05-15T00:33:01.525Z,8.45
2023-05-15T00:34:01.946Z,8.47
2023-05-15T00:35:01.421Z,8.47
2023-05-15T00:36:01.829Z,8.49
2023-05-15T00:37:01.363Z,8.49
2023-05-15T00:38:01.839Z,8.49
2023-05-15T00:39:02.939Z,8.5
2023-05-15T00:40:01.862Z,8.51
2023-05-15T00:41:02.127Z,8.49
2023-05-15T00:42:02.343Z,8.49
2023-05-15T00:43:02.336Z,8.48
2023-05-15T00:44:01.768Z,8.49
2023-05-15T00:45:02.320Z,8.49
2023-05-15T00:46:01.941Z,8.49
2023-05-15T00:47:03.356Z,8.48
2023-05-15T00:48:02.248Z,8.47
2023-05-15T00:49:01.708Z,8.45
2023-05-15T00:50:02.170Z,8.45
2023-05-15T00:51:01.609Z,8.42
2023-05-15T00:52:02.106Z,8.41
2023-05-15T00:53:01.553Z,8.35
2023-05-15T00:54:02.068Z,8.29
2023-05-15T00:55:01.536Z,8.27
2023-05-15T00:56:03.603Z,8.31
2023-05-15T00:57:01.445Z,8.32
2023-05-15T00:58:01.951Z,8.33
2023-05-15T00:59:01.381Z,8.32
2023-05-15T01:00:01.851Z,8.34
2023-05-15T01:02:01.816Z,8.36
2023-05-15T01:03:02.411Z,8.34
2023-05-15T01:04:01.783Z,8.34
2023-05-15T01:05:02.240Z,8.33
2023-05-15T01:06:01.698Z,8.31
2023-05-15T01:07:02.210Z,8.3
2023-05-15T01:08:01.680Z,8.24
2023-05-15T01:09:02.269Z,8.23
2023-05-15T01:10:01.610Z,8.23
2023-05-15T01:11:02.086Z,8.21
2023-05-15T01:12:01.548Z,8.2
2023-05-15T01:13:03.667Z,8.19
2023-05-15T01:14:03.203Z,8.18
2023-05-15T01:15:02.015Z,8.16
2023-05-15T01:16:01.453Z,8.14
2023-05-15T01:17:01.946Z,8.11
2023-05-15T01:18:01.462Z,8.08
2023-05-15T01:19:02.048Z,8.02
2023-05-15T01:20:01.432Z,7.98
2023-05-15T01:21:01.887Z,7.97
2023-05-15T01:22:02.325Z,7.98
2023-05-15T01:23:01.792Z,7.99
2023-05-15T01:24:02.250Z,7.99
2023-05-15T01:25:01.765Z,7.97
2023-05-15T01:26:02.240Z,7.92
2023-05-15T01:27:01.685Z,7.88
2023-05-15T01:28:02.197Z,7.83
2023-05-15T01:29:01.617Z,7.86
2023-05-15T01:30:02.178Z,7.88
2023-05-15T01:31:01.623Z,7.85
2023-05-15T01:32:02.130Z,7.88
2023-05-15T01:33:01.651Z,7.9
2023-05-15T01:34:03.702Z,7.9
2023-05-15T01:35:03.204Z,7.89
2023-05-15T01:36:02.016Z,7.87
2023-05-15T01:37:01.433Z,7.87
2023-05-15T01:38:01.917Z,7.86
2023-05-15T01:39:01.433Z,7.88
2023-05-15T01:40:03.534Z,7.9
2023-05-15T01:41:01.412Z,7.91
2023-05-15T01:42:01.847Z,7.89
2023-05-15T01:44:01.766Z,7.86
2023-05-15T01:45:02.241Z,7.84
2023-05-15T01:46:01.816Z,7.83
2023-05-15T01:47:02.231Z,7.87
2023-05-15T01:48:01.716Z,7.94
2023-05-15T01:49:02.163Z,7.96
2023-05-15T01:50:01.639Z,7.97
2023-05-15T01:51:02.176Z,7.94
2023-05-15T01:52:01.599Z,7.97
2023-05-15T01:53:02.090Z,7.97
2023-05-15T01:54:03.196Z,7.97
2023-05-15T01:55:02.245Z,7.98
2023-05-15T01:56:01.853Z,8.03
2023-05-15T01:57:01.563Z,8.01
2023-05-15T01:58:01.933Z,8
2023-05-15T01:59:01.453Z,7.99
2023-05-15T02:00:01.971Z,8.02
2023-05-15T02:01:03.055Z,8.04
2023-05-15T02:02:01.871Z,8.02
2023-05-15T02:03:09.044Z,7.97
2023-05-15T02:04:03.536Z,7.97
2023-05-15T02:05:02.235Z,7.97
2023-05-15T02:06:01.695Z,7.98
2023-05-15T02:07:02.182Z,7.93
2023-05-15T02:08:01.643Z,7.89
2023-05-15T02:09:02.084Z,7.85
2023-05-15T02:10:01.613Z,7.84
2023-05-15T02:11:02.092Z,7.85
2023-05-15T02:12:01.541Z,7.85
2023-05-15T02:13:02.013Z,7.84
2023-05-15T02:14:01.444Z,7.82
2023-05-15T02:15:01.939Z,7.79
2023-05-15T02:16:01.402Z,7.77
2023-05-15T02:17:01.906Z,7.72
2023-05-15T02:18:01.378Z,7.7
2023-05-15T02:19:01.881Z,7.7
2023-05-15T02:20:03.997Z,7.7
2023-05-15T02:21:01.769Z,7.7
2023-05-15T02:22:02.254Z,7.69
2023-05-15T02:23:01.680Z,7.67
2023-05-15T02:24:02.177Z,7.61
2023-05-15T02:25:01.733Z,7.55
2023-05-15T02:26:02.166Z,7.5
2023-05-15T02:27:01.616Z,7.48
2023-05-15T02:28:02.097Z,7.45
2023-05-15T02:29:01.543Z,7.45
2023-05-15T02:30:02.034Z,7.46
2023-05-15T02:31:01.459Z,7.47
2023-05-15T02:32:01.967Z,7.49
2023-05-15T02:33:03.164Z,7.5
2023-05-15T02:34:01.947Z,7.53
2023-05-15T02:35:01.392Z,7.49
2023-05-15T02:36:01.885Z,7.45
2023-05-15T02:37:02.331Z,7.43
2023-05-15T02:38:01.796Z,7.4
2023-05-15T02:39:02.253Z,7.4
2023-05-15T02:40:01.703Z,7.41
2023-05-15T02:41:02.196Z,7.42
2023-05-15T02:42:01.705Z,7.41
2023-05-15T02:43:02.185Z,7.38
2023-05-15T02:44:01.616Z,7.38
2023-05-15T02:45:02.090Z,7.39
2023-05-15T02:46:03.290Z,7.38
2023-05-15T02:47:03.686Z,7.35
2023-05-15T02:48:03.309Z,7.3
2023-05-15T02:49:01.929Z,7.29
2023-05-15T02:50:03.050Z,7.3
2023-05-15T02:51:03.554Z,7.31
2023-05-15T02:52:01.376Z,7.3
2023-05-15T02:53:01.860Z,7.29
2023-05-15T02:54:03.970Z,7.22
2023-05-15T02:55:03.442Z,7.23
2023-05-15T02:56:02.251Z,7.23
2023-05-15T02:57:01.704Z,7.23
2023-05-15T02:58:03.846Z,7.2
2023-05-15T02:59:01.604Z,7.18
2023-05-15T03:00:02.081Z,7.17
2023-05-15T03:01:01.762Z,7.17
2023-05-15T03:02:02.192Z,7.16
2023-05-15T03:03:01.647Z,7.14
2023-05-15T03:04:02.125Z,7.11
2023-05-15T03:05:01.604Z,7.08
2023-05-15T03:06:02.101Z,7.03
2023-05-15T03:07:01.554Z,7.02
2023-05-15T03:08:02.008Z,7.01
2023-05-15T03:09:01.450Z,7
2023-05-15T03:10:01.918Z,6.98
2023-05-15T03:11:03.128Z,6.97
2023-05-15T03:12:01.947Z,6.96
2023-05-15T03:13:01.347Z,6.95
2023-05-15T03:14:01.834Z,6.91
2023-05-15T03:15:03.048Z,6.89
2023-05-15T03:16:01.846Z,6.87
2023-05-15T03:17:04.084Z,6.86
2023-05-15T03:18:01.783Z,6.86
2023-05-15T03:19:03.954Z,6.85
2023-05-15T03:20:03.355Z,6.82
2023-05-15T03:21:02.258Z,6.8
2023-05-15T03:22:03.391Z,6.8
2023-05-15T03:23:03.836Z,6.78
2023-05-15T03:24:01.604Z,6.75
2023-05-15T03:25:02.095Z,6.74
2023-05-15T03:26:01.610Z,6.73
2023-05-15T03:27:02.091Z,6.73
2023-05-15T03:28:03.210Z,6.73
2023-05-15T03:29:02.025Z,6.72
2023-05-15T03:30:01.513Z,6.71
2023-05-15T03:31:02.069Z,6.71
2023-05-15T03:32:01.463Z,6.71
2023-05-15T03:33:02.024Z,6.7
2023-05-15T03:34:01.444Z,6.69
2023-05-15T03:35:01.925Z,6.69
2023-05-15T03:36:01.358Z,6.68
2023-05-15T03:37:01.864Z,6.68
2023-05-15T03:38:01.371Z,6.67
2023-05-15T03:39:03.442Z,6.64
2023-05-15T03:40:02.353Z,6.6
2023-05-15T03:41:01.755Z,6.6
2023-05-15T03:42:02.266Z,6.57
2023-05-15T03:43:01.669Z,6.56
2023-05-15T03:44:03.826Z,6.57
2023-05-15T03:45:01.681Z,6.58
2023-05-15T03:46:02.245Z,6.59
2023-05-15T03:47:01.746Z,6.59
2023-05-15T03:48:02.109Z,6.6
2023-05-15T03:49:01.590Z,6.6
2023-05-15T03:50:02.075Z,6.61
2023-05-15T03:51:01.522Z,6.61
2023-05-15T03:52:02.008Z,6.63
2023-05-15T03:53:01.543Z,6.61
2023-05-15T03:54:03.695Z,6.61
2023-05-15T03:55:01.492Z,6.59
2023-05-15T03:56:01.919Z,6.59
2023-05-15T03:57:03.027Z,6.59
2023-05-15T03:58:01.942Z,6.6
2023-05-15T03:59:01.364Z,6.6
2023-05-15T04:00:03.511Z,6.63
2023-05-15T04:01:01.361Z,6.64
2023-05-15T04:02:05.510Z,6.63
2023-05-15T04:03:02.517Z,6.63
2023-05-15T04:04:03.447Z,6.61
2023-05-15T04:05:02.264Z,6.61
2023-05-15T04:06:04.457Z,6.61
2023-05-15T04:07:02.241Z,6.61
2023-05-15T04:08:01.687Z,6.61
2023-05-15T04:09:02.150Z,6.61
2023-05-15T04:10:01.627Z,6.61
2023-05-15T04:11:02.090Z,6.63
2023-05-15T04:12:03.213Z,6.61
2023-05-15T04:13:02.010Z,6.63
2023-05-15T04:14:01.440Z,6.61
2023-05-15T04:15:01.909Z,6.6
2023-05-15T04:16:01.376Z,6.61
2023-05-15T04:17:01.875Z,6.63
2023-05-15T04:18:01.375Z,6.64
2023-05-15T04:19:01.898Z,6.66
2023-05-15T04:20:02.239Z,6.66
2023-05-15T04:21:03.454Z,6.67
2023-05-15T04:22:02.250Z,6.68
2023-05-15T04:23:03.349Z,6.7
2023-05-15T04:24:03.830Z,6.72
2023-05-15T04:25:01.771Z,6.72
2023-05-15T04:26:02.066Z,6.73
2023-05-15T04:27:01.582Z,6.75
2023-05-15T04:28:03.667Z,6.75
2023-05-15T04:29:04.363Z,6.78
2023-05-15T04:30:01.935Z,6.79
2023-05-15T04:31:01.435Z,6.8
2023-05-15T04:32:01.964Z,6.81
2023-05-15T04:33:01.429Z,6.82
2023-05-15T04:34:01.834Z,6.82
2023-05-15T04:35:01.363Z,6.82
2023-05-15T04:36:01.843Z,6.85
2023-05-15T04:37:02.333Z,6.87
2023-05-15T04:38:03.430Z,6.88
2023-05-15T04:39:02.241Z,6.89
2023-05-15T04:40:01.710Z,6.91
2023-05-15T04:41:03.827Z,6.91
2023-05-15T04:42:01.693Z,6.93
2023-05-15T04:43:02.158Z,6.95
2023-05-15T04:44:03.280Z,6.99
2023-05-15T04:45:02.080Z,7.01
2023-05-15T04:46:01.635Z,7.03
2023-05-15T04:47:02.112Z,7.07
2023-05-15T04:48:01.547Z,7.09
2023-05-15T04:49:02.001Z,7.12
2023-05-15T04:50:01.534Z,7.12
2023-05-15T04:51:01.995Z,7.16
2023-05-15T04:52:01.449Z,7.19
2023-05-15T04:53:01.944Z,7.23
2023-05-15T04:54:01.442Z,7.27
2023-05-15T04:55:01.944Z,7.3
2023-05-15T04:56:01.360Z,7.34
2023-05-15T04:57:01.837Z,7.39
2023-05-15T04:58:01.378Z,7.42
2023-05-15T04:59:01.831Z,7.45
2023-05-15T05:00:02.307Z,7.5
2023-05-15T05:01:04.366Z,7.56
2023-05-15T05:02:03.406Z,7.59
2023-05-15T05:03:03.728Z,7.63
2023-05-15T05:04:01.470Z,7.68
2023-05-15T05:05:03.773Z,7.74
2023-05-15T05:06:01.752Z,7.78
2023-05-15T05:07:02.234Z,7.84
2023-05-15T05:08:01.909Z,7.89
2023-05-15T05:09:01.484Z,7.92
2023-05-15T05:10:03.602Z,7.97
2023-05-15T05:11:01.504Z,8
2023-05-15T05:12:01.920Z,8.02
2023-05-15T05:13:01.361Z,8.05
2023-05-15T05:14:01.837Z,8.12
2023-05-15T05:15:02.314Z,8.18
2023-05-15T05:16:01.929Z,8.22
2023-05-15T05:17:03.837Z,8.26
2023-05-15T05:18:01.763Z,8.28
2023-05-15T05:19:03.885Z,8.33
2023-05-15T05:20:03.337Z,8.39
2023-05-15T05:21:03.762Z,8.45
2023-05-15T05:22:03.192Z,8.49
2023-05-15T05:23:03.698Z,8.58
2023-05-15T05:24:01.438Z,8.64
2023-05-15T05:25:01.941Z,8.71
2023-05-15T05:26:01.858Z,8.76
2023-05-15T05:27:03.520Z,8.8
2023-05-15T05:28:02.363Z,8.89
2023-05-15T05:29:01.791Z,8.95
2023-05-15T05:30:02.320Z,9.06
2023-05-15T05:31:03.381Z,9.15
2023-05-15T05:32:02.260Z,9.23
2023-05-15T05:33:01.632Z,9.31
2023-05-15T05:34:02.092Z,9.37
2023-05-15T05:35:03.315Z,9.44
2023-05-15T05:36:02.096Z,9.5
2023-05-15T05:37:01.553Z,9.55
2023-05-15T05:38:02.022Z,9.61
2023-05-15T05:39:01.425Z,9.68
2023-05-15T05:40:01.926Z,9.75
2023-05-15T05:41:01.392Z,9.81
2023-05-15T05:42:01.843Z,9.89
2023-05-15T05:43:01.374Z,9.95
2023-05-15T05:44:01.778Z,10.01
2023-05-15T05:45:02.253Z,10.09
2023-05-15T05:46:01.800Z,10.14
2023-05-15T05:47:03.893Z,10.21
2023-05-15T05:48:03.445Z,10.28
2023-05-15T05:49:02.156Z,10.36
2023-05-15T05:50:01.617Z,10.41
2023-05-15T05:51:02.099Z,10.45
2023-05-15T05:52:01.521Z,10.52
2023-05-15T05:53:01.997Z,10.56
2023-05-15T05:54:01.447Z,10.62
2023-05-15T05:55:01.921Z,10.65
2023-05-15T05:56:01.463Z,10.71
2023-05-15T05:57:01.930Z,10.78
2023-05-15T05:58:02.238Z,10.83
2023-05-15T05:59:01.885Z,10.88
2023-05-15T06:00:02.319Z,10.96
2023-05-15T06:01:03.457Z,11.04
2023-05-15T06:02:02.313Z,11.11
2023-05-15T06:03:01.905Z,11.17
2023-05-15T06:04:02.343Z,11.25
2023-05-15T06:05:01.705Z,11.33
2023-05-15T06:06:02.099Z,11.42
2023-05-15T06:07:01.624Z,11.46
2023-05-15T06:08:02.099Z,11.51
2023-05-15T06:09:01.529Z,11.56
2023-05-15T06:10:02.004Z,11.59
2023-05-15T06:11:01.453Z,11.68
2023-05-15T06:12:01.957Z,11.7
2023-05-15T06:13:01.413Z,11.77
2023-05-15T06:14:01.850Z,11.88
2023-05-15T06:15:01.381Z,11.94
2023-05-15T06:16:01.869Z,12.01
2023-05-15T06:17:02.613Z,12.08
2023-05-15T06:18:02.297Z,12.17
2023-05-15T06:19:01.720Z,12.21
2023-05-15T06:20:02.097Z,12.25
2023-05-15T06:21:01.529Z,12.3
2023-05-15T06:22:03.678Z,12.38
2023-05-15T06:23:03.139Z,12.52
2023-05-15T06:24:03.597Z,12.59
2023-05-15T06:25:01.364Z,12.6
2023-05-15T06:26:01.852Z,12.6
2023-05-15T06:27:02.350Z,12.65
2023-05-15T06:28:03.472Z,12.71
2023-05-15T06:29:02.270Z,12.76
2023-05-15T06:30:01.695Z,12.77
2023-05-15T06:31:03.942Z,12.79
2023-05-15T06:32:03.302Z,12.84
2023-05-15T06:33:02.111Z,12.85
2023-05-15T06:34:01.546Z,12.9
2023-05-15T06:35:01.991Z,13.05
2023-05-15T06:36:01.533Z,13.08
2023-05-15T06:37:02.006Z,13.1
2023-05-15T06:38:01.448Z,13.17
2023-05-15T06:39:01.925Z,13.22
2023-05-15T06:40:01.411Z,13.25
2023-05-15T06:41:03.525Z,13.29
2023-05-15T06:42:01.406Z,13.3
2023-05-15T06:43:01.853Z,13.3
2023-05-15T06:44:03.908Z,13.38
2023-05-15T06:45:01.768Z,13.38
2023-05-15T06:46:02.290Z,13.35
2023-05-15T06:47:01.934Z,13.4
2023-05-15T06:48:02.264Z,13.46
2023-05-15T06:49:01.603Z,13.5
2023-05-15T06:50:02.082Z,13.7
2023-05-15T06:51:01.547Z,13.77
2023-05-15T06:52:01.989Z,13.89
2023-05-15T06:53:01.455Z,13.91
2023-05-15T06:54:01.953Z,13.88
2023-05-15T06:55:01.433Z,13.84
2023-05-15T06:56:03.549Z,13.82
2023-05-15T06:57:01.360Z,13.9
2023-05-15T06:58:01.822Z,14.04
2023-05-15T06:59:02.321Z,14.2
2023-05-15T07:00:03.425Z,14.35
2023-05-15T07:01:02.271Z,14.32
2023-05-15T07:02:01.736Z,14.19
2023-05-15T07:03:02.206Z,14.08
2023-05-15T07:04:01.611Z,14.05
2023-05-15T07:05:02.221Z,14.05
2023-05-15T07:06:03.276Z,14.24
2023-05-15T07:07:02.134Z,14.43
2023-05-15T07:08:01.540Z,14.43
2023-05-15T07:09:03.677Z,14.32
2023-05-15T07:10:01.510Z,14.33
2023-05-15T07:11:01.925Z,14.38
2023-05-15T07:12:01.468Z,14.34
2023-05-15T07:13:03.599Z,14.33
2023-05-15T07:14:01.348Z,14.32
2023-05-15T07:15:03.537Z,14.23
2023-05-15T07:16:01.369Z,14.13
2023-05-15T07:17:01.974Z,14.11
2023-05-15T07:18:04.019Z,14.14
2023-05-15T07:19:01.880Z,14.18
2023-05-15T07:20:03.926Z,14.18
2023-05-15T07:21:01.695Z,14.1
2023-05-15T07:22:03.486Z,14.1
2023-05-15T07:23:01.840Z,14.17
2023-05-15T07:24:02.337Z,14.17
2023-05-15T07:25:01.774Z,14.24
2023-05-15T07:26:02.238Z,14.35
2023-05-15T07:27:01.680Z,14.34
2023-05-15T07:28:02.164Z,14.33
2023-05-15T07:29:01.677Z,14.37
2023-05-15T07:30:02.089Z,14.36
2023-05-15T07:31:02.821Z,14.29
2023-05-15T07:32:02.147Z,14.2
2023-05-15T07:33:01.574Z,14.19
2023-05-15T07:34:03.679Z,14.19
2023-05-15T07:35:03.120Z,14.23
2023-05-15T07:36:01.933Z,14.27
2023-05-15T07:37:01.378Z,14.3
2023-05-15T07:38:01.889Z,14.29
2023-05-15T07:39:01.364Z,14.38
2023-05-15T07:40:01.895Z,14.47
2023-05-15T07:41:03.921Z,14.52
2023-05-15T07:42:01.788Z,14.55
2023-05-15T07:43:02.252Z,14.49
2023-05-15T07:44:03.366Z,14.49
2023-05-15T07:45:03.867Z,14.52
2023-05-15T07:46:01.627Z,14.51
2023-05-15T07:47:02.092Z,14.45
2023-05-15T07:48:01.558Z,14.43
2023-05-15T07:49:02.075Z,14.44
2023-05-15T07:50:03.117Z,14.44
2023-05-15T07:51:03.590Z,14.44
2023-05-15T07:52:01.346Z,14.47
2023-05-15T07:53:01.857Z,14.44
2023-05-15T07:54:01.362Z,14.53
2023-05-15T07:55:01.859Z,14.64
2023-05-15T07:56:02.322Z,14.7
2023-05-15T07:57:01.757Z,14.74
2023-05-15T07:58:03.928Z,14.8
2023-05-15T07:59:01.793Z,14.97
2023-05-15T08:00:03.836Z,15.02
2023-05-15T08:01:01.634Z,15.02
2023-05-15T08:02:02.101Z,14.95
2023-05-15T08:03:03.267Z,14.94
2023-05-15T08:04:02.112Z,14.98
2023-05-15T08:05:01.433Z,15.16
2023-05-15T08:06:01.919Z,15.32
2023-05-15T08:07:01.439Z,15.36
2023-05-15T08:08:01.846Z,15.37
2023-05-15T08:09:01.415Z,15.39
2023-05-15T08:10:01.874Z,15.43
2023-05-15T08:11:02.326Z,15.56
2023-05-15T08:12:01.751Z,15.7
2023-05-15T08:13:02.272Z,15.77
2023-05-15T08:14:01.728Z,15.81
2023-05-15T08:15:03.832Z,15.8
2023-05-15T08:16:01.682Z,15.75
2023-05-15T08:17:03.845Z,15.68
2023-05-15T08:18:01.687Z,15.65
2023-05-15T08:19:03.779Z,15.67
2023-05-15T08:20:01.520Z,15.74
2023-05-15T08:21:02.989Z,15.8
2023-05-15T08:22:01.445Z,15.88
2023-05-15T08:23:03.590Z,15.97
2023-05-15T08:24:01.377Z,16.12
2023-05-15T08:25:01.842Z,16.14
2023-05-15T08:26:02.338Z,16.12
2023-05-15T08:27:03.439Z,16.24
2023-05-15T08:28:02.245Z,16.34
2023-05-15T08:29:02.153Z,16.45
2023-05-15T08:30:01.844Z,16.54
2023-05-15T08:31:02.358Z,16.43
2023-05-15T08:32:01.751Z,16.27
2023-05-15T08:33:02.284Z,16.18
2023-05-15T08:34:01.763Z,16.26
2023-05-15T08:35:02.244Z,16.34
2023-05-15T08:36:03.418Z,16.43
2023-05-15T08:37:02.152Z,16.49
2023-05-15T08:38:01.603Z,16.59
2023-05-15T08:39:02.072Z,16.71
2023-05-15T08:40:03.195Z,16.78
2023-05-15T08:41:01.991Z,16.92
2023-05-15T08:42:03.142Z,17.06
2023-05-15T08:43:01.908Z,17.1
2023-05-15T08:44:01.425Z,17.17
2023-05-15T08:45:02.064Z,17.33
2023-05-15T08:46:01.367Z,17.5
2023-05-15T08:47:01.880Z,17.55
2023-05-15T08:48:01.494Z,17.65
2023-05-15T08:49:01.895Z,17.83
2023-05-15T08:50:02.264Z,17.95
2023-05-15T08:51:03.436Z,18.1
2023-05-15T08:52:02.151Z,18.34
2023-05-15T08:53:01.688Z,18.49
2023-05-15T08:54:03.766Z,18.65
2023-05-15T08:55:01.658Z,18.78
2023-05-15T08:56:03.689Z,18.79
2023-05-15T08:57:01.516Z,18.72
2023-05-15T08:58:02.001Z,18.59
2023-05-15T08:59:01.444Z,18.39
2023-05-15T09:00:01.958Z,18.32
2023-05-15T09:01:01.364Z,18.27
2023-05-15T09:02:01.918Z,18.26
2023-05-15T09:03:03.125Z,18.13
2023-05-15T09:04:01.915Z,18
2023-05-15T09:05:04.008Z,17.9
2023-05-15T09:06:01.763Z,17.77
2023-05-15T09:07:02.240Z,17.68
2023-05-15T09:08:01.685Z,17.54
2023-05-15T09:09:02.277Z,17.37
2023-05-15T09:10:03.365Z,17.33
2023-05-15T09:11:02.175Z,17.28
2023-05-15T09:12:01.610Z,17.26
2023-05-15T09:13:02.079Z,17.37
2023-05-15T09:14:01.602Z,17.47
2023-05-15T09:15:03.754Z,17.45
2023-05-15T09:16:01.533Z,17.46
2023-05-15T09:17:02.257Z,17.49
2023-05-15T09:18:03.141Z,17.56
2023-05-15T09:19:01.955Z,17.68
2023-05-15T09:20:01.368Z,17.66
2023-05-15T09:21:01.893Z,17.55
2023-05-15T09:22:01.361Z,17.47
2023-05-15T09:23:01.868Z,17.51
2023-05-15T09:24:02.358Z,17.53
2023-05-15T09:25:03.449Z,17.51
2023-05-15T09:26:02.246Z,17.58
2023-05-15T09:27:01.675Z,17.54
2023-05-15T09:28:02.176Z,17.47
2023-05-15T09:29:01.678Z,17.35
2023-05-15T09:30:03.842Z,17.28
2023-05-15T09:31:01.612Z,17.21
2023-05-15T09:32:02.166Z,17.18
2023-05-15T09:33:01.669Z,17.25
2023-05-15T09:34:02.102Z,17.3
2023-05-15T09:35:02.592Z,17.4
2023-05-15T09:36:02.235Z,17.6
2023-05-15T09:37:01.683Z,17.69
2023-05-15T09:38:02.199Z,17.63
2023-05-15T09:39:01.625Z,17.46
2023-05-15T09:40:02.080Z,17.35
2023-05-15T09:41:01.598Z,17.28
2023-05-15T09:42:03.678Z,17.32
2023-05-15T09:43:03.164Z,17.36
2023-05-15T09:44:03.593Z,17.41
2023-05-15T09:45:01.448Z,17.49
2023-05-15T09:46:02.039Z,17.46
2023-05-15T09:47:01.469Z,17.4
2023-05-15T09:48:01.986Z,17.35
2023-05-15T09:49:03.932Z,17.35
2023-05-15T09:50:01.770Z,17.35
2023-05-15T09:51:03.837Z,17.43
2023-05-15T09:52:01.740Z,17.55
2023-05-15T09:53:02.154Z,17.61
2023-05-15T09:54:01.609Z,17.53
2023-05-15T09:55:02.170Z,17.46
2023-05-15T09:56:01.537Z,17.37
2023-05-15T09:57:03.678Z,17.38
2023-05-15T09:58:01.524Z,17.35
2023-05-15T09:59:01.931Z,17.3
2023-05-15T10:00:01.455Z,17.26
2023-05-15T10:01:01.990Z,17.18
2023-05-15T10:02:03.080Z,17.2
2023-05-15T10:03:03.570Z,17.28
2023-05-15T10:04:02.328Z,17.28
2023-05-15T10:05:01.860Z,17.29
2023-05-15T10:06:02.323Z,17.36
2023-05-15T10:07:01.679Z,17.45
2023-05-15T10:08:02.163Z,17.52
2023-05-15T10:09:03.299Z,17.6
2023-05-15T10:10:02.082Z,17.65
2023-05-15T10:11:03.244Z,17.73
2023-05-15T10:12:03.694Z,17.88
2023-05-15T10:13:01.445Z,17.96
2023-05-15T10:14:01.925Z,18.03
2023-05-15T10:15:03.119Z,18.06
2023-05-15T10:16:03.795Z,18.03
2023-05-15T10:17:02.974Z,18.04
2023-05-15T10:18:01.867Z,18.04
2023-05-15T10:19:03.559Z,17.99
2023-05-15T10:20:01.772Z,17.96
2023-05-15T10:21:02.241Z,17.95
2023-05-15T10:22:01.685Z,17.92
2023-05-15T10:23:02.188Z,17.87
2023-05-15T10:24:01.621Z,17.83
2023-05-15T10:25:02.075Z,17.76
2023-05-15T10:26:01.515Z,17.66
2023-05-15T10:27:03.673Z,17.52
2023-05-15T10:28:03.226Z,17.54
2023-05-15T10:29:02.002Z,17.54
2023-05-15T10:30:01.493Z,17.5
2023-05-15T10:31:01.986Z,17.54
2023-05-15T10:32:03.052Z,17.54
2023-05-15T10:33:03.577Z,17.51
2023-05-15T10:34:02.390Z,17.44
2023-05-15T10:35:01.770Z,17.4
2023-05-15T10:36:02.250Z,17.49
2023-05-15T10:37:01.705Z,17.56
2023-05-15T10:38:02.176Z,17.55
2023-05-15T10:39:03.361Z,17.53
2023-05-15T10:40:02.179Z,17.47
2023-05-15T10:41:16.514Z,17.51
2023-05-15T10:42:01.394Z,17.6
2023-05-15T10:43:03.512Z,17.56
2023-05-15T10:44:02.324Z,17.55
2023-05-15T10:45:01.776Z,17.56
2023-05-15T10:46:02.248Z,17.55
2023-05-15T10:47:01.810Z,17.54
2023-05-15T10:48:02.353Z,17.62
2023-05-15T10:49:01.605Z,17.79
2023-05-15T10:50:02.077Z,18.02
2023-05-15T10:51:01.557Z,18.11
2023-05-15T10:52:02.013Z,18.25
2023-05-15T10:53:03.224Z,18.32
2023-05-15T10:54:02.011Z,18.42
2023-05-15T10:55:03.115Z,18.49
2023-05-15T10:56:02.014Z,18.53
2023-05-15T10:57:01.374Z,18.67
2023-05-15T10:58:01.860Z,18.71
2023-05-15T10:59:01.370Z,18.66
2023-05-15T11:00:01.798Z,18.62
2023-05-15T11:01:36.277Z,18.58
2023-05-15T11:02:03.508Z,18.61
2023-05-15T11:03:02.267Z,18.68
2023-05-15T11:04:01.881Z,18.68
2023-05-15T11:05:01.392Z,18.71
2023-05-15T11:06:02.017Z,18.72
2023-05-15T11:07:01.535Z,18.72
2023-05-15T11:08:03.689Z,18.84
2023-05-15T11:09:01.722Z,18.96
2023-05-15T11:10:03.685Z,19.06
2023-05-15T11:11:01.802Z,19.2
2023-05-15T11:12:03.230Z,19.32
2023-05-15T11:13:02.090Z,19.38
2023-05-15T11:14:01.539Z,19.28
2023-05-15T11:15:02.102Z,19.37
2023-05-15T11:16:01.613Z,19.47
2023-05-15T11:17:02.172Z,19.55
2023-05-15T11:18:01.627Z,19.6
2023-05-15T11:19:02.175Z,19.63
2023-05-15T11:20:01.716Z,19.71
2023-05-15T11:21:02.199Z,19.79
2023-05-15T11:22:03.392Z,19.89
2023-05-15T11:23:01.447Z,19.91
2023-05-15T11:24:02.092Z,19.91
2023-05-15T11:25:03.394Z,19.86
2023-05-15T11:26:03.912Z,19.74
2023-05-15T11:27:03.376Z,19.9
2023-05-15T11:28:01.365Z,19.96
2023-05-15T11:29:03.847Z,20.03
2023-05-15T11:30:01.861Z,20
2023-05-15T11:31:01.600Z,19.91
2023-05-15T11:32:02.168Z,19.72
2023-05-15T11:33:01.782Z,19.66
2023-05-15T11:34:03.042Z,19.63
2023-05-15T11:35:03.524Z,19.8
2023-05-15T11:36:01.412Z,19.91
2023-05-15T11:37:01.377Z,19.91
2023-05-15T11:38:03.982Z,19.96
2023-05-15T11:39:01.761Z,20.07
2023-05-15T11:41:02.103Z,20.07
2023-05-15T11:42:01.978Z,19.92
2023-05-15T11:43:01.520Z,19.8
2023-05-15T11:44:03.756Z,19.59
2023-05-15T11:45:01.598Z,19.38
2023-05-15T11:46:03.770Z,19.24
2023-05-15T11:47:01.583Z,19.08
2023-05-15T11:48:02.095Z,18.95
2023-05-15T11:49:03.110Z,18.86
2023-05-15T11:50:03.604Z,18.72
2023-05-15T11:51:01.466Z,18.59
2023-05-15T11:52:01.867Z,18.46
2023-05-15T11:54:01.754Z,18.24
2023-05-15T11:55:03.909Z,18.2
2023-05-15T11:56:01.763Z,18.17
2023-05-15T11:57:03.857Z,18.14
2023-05-15T11:58:01.684Z,18.1
2023-05-15T11:59:02.201Z,18.07
2023-05-15T12:00:01.598Z,18
2023-05-15T12:01:02.075Z,17.95
2023-05-15T12:02:01.592Z,17.92
2023-05-15T12:03:03.958Z,17.94
2023-05-15T12:04:01.769Z,17.95
2023-05-15T12:05:02.113Z,17.97
2023-05-15T12:06:01.430Z,18
2023-05-15T12:07:03.115Z,18.03
2023-05-15T12:08:01.351Z,18.04
2023-05-15T12:09:03.588Z,18.07
2023-05-15T12:11:01.860Z,18.17
2023-05-15T12:12:03.903Z,18.15
2023-05-15T12:13:01.753Z,18.22
2023-05-15T12:14:03.858Z,18.19
2023-05-15T12:15:01.675Z,18.2
2023-05-15T12:16:02.250Z,18.29
2023-05-15T12:17:01.654Z,18.37
2023-05-15T12:18:02.090Z,18.44
2023-05-15T12:19:01.674Z,18.49
2023-05-15T12:20:02.089Z,18.53
2023-05-15T12:21:03.192Z,18.64
2023-05-15T12:22:02.001Z,18.83
2023-05-15T12:23:01.433Z,18.96
2023-05-15T12:25:03.052Z,19.23
2023-05-15T12:26:01.830Z,19.21
2023-05-15T12:27:01.394Z,19.18
2023-05-15T12:28:01.854Z,19.24
2023-05-15T12:29:03.983Z,19.23
2023-05-15T12:30:01.778Z,19.36
2023-05-15T12:31:02.240Z,19.51
2023-05-15T12:32:01.758Z,19.63
2023-05-15T12:33:02.251Z,19.85
2023-05-15T12:34:01.703Z,19.81
2023-05-15T12:35:02.146Z,19.77
2023-05-15T12:36:03.293Z,19.86
2023-05-15T12:37:02.105Z,19.96
2023-05-15T12:38:03.210Z,20.11
2023-05-15T12:39:02.003Z,20.27
2023-05-15T12:40:03.121Z,20.44
2023-05-15T12:41:01.921Z,20.55
2023-05-15T12:42:01.458Z,20.54
2023-05-15T12:43:03.581Z,20.4
2023-05-15T12:44:01.359Z,20.42
2023-05-15T12:45:01.869Z,20.32
2023-05-15T12:46:01.391Z,20.42
2023-05-15T12:47:01.846Z,20.6
2023-05-15T12:48:02.392Z,20.78
2023-05-15T12:49:01.997Z,20.94
2023-05-15T12:50:01.894Z,21.03
2023-05-15T12:51:01.369Z,21.07
2023-05-15T12:52:03.454Z,21.06
2023-05-15T12:53:02.254Z,21.17
2023-05-15T12:54:03.370Z,21.29
2023-05-15T12:55:02.185Z,21.35
2023-05-15T12:56:01.689Z,21.36
2023-05-15T12:57:02.284Z,21.32
2023-05-15T12:58:01.604Z,21.28
2023-05-15T12:59:02.107Z,21.37
2023-05-15T13:00:01.615Z,21.27
2023-05-15T13:01:02.064Z,21.04
2023-05-15T13:02:01.453Z,20.92
2023-05-15T13:03:02.119Z,20.74
2023-05-15T13:04:01.545Z,20.49
2023-05-15T13:05:01.945Z,20.26
2023-05-15T13:06:01.374Z,20.16
2023-05-15T13:07:01.854Z,20.18
2023-05-15T13:08:02.333Z,20.27
2023-05-15T13:09:01.776Z,20.32
2023-05-15T13:10:02.256Z,20.37
2023-05-15T13:11:01.701Z,20.45
2023-05-15T13:12:02.169Z,20.5
2023-05-15T13:13:01.716Z,20.53